Hauptseite
METAR-TAF:

METAR-TAF

Flughäfen :

Penn Valley Airport

Selinsgrove, Pennsylvania, Vereinigte Staaten

Breite: 40-49-09N, Länge: 076-51-58W, Höhe: 137 m

Beobachtung

Neuester Wetterbericht von vor 22 Minuten, um 04:53 UTC
Windstille
Temperatur -7°C
Luftfeuchtigkeit 73%
Luftdruck 1017 hPa
Sichtweite: 16.1 km
Aufgelockert bewölkt in der Höhe von 4000 ft

METAR: KSEG 210453Z AUTO 00000KT 10SM SCT040 M07/M11 A3002 RMK AO2 SLP172 T10721106 400221072

Zeit: 00:15 (05:15 UTC)


TAF: fehlend

Wetterbeobachtungen und Prognosen von mehr als 4000 Flughäfen (METAR und TAF Bericht).

Die verfügbaren Stationen werden durch gelbe und rote Markierungen auf der Karte dargestellt.

Führen Sie die Maus auf sie, um den Namen der Station zu sehen.

Darauf klicken, um die Beobachtung von Wetterbeobachtungen und Prognosen zu sehen.

Um die Karte zu ändern : klicken Sie auf den grünen Tasten mit einem schwarzen Kreuz Zum Vergrößern, auf den grünen Button mit einem Gedankenstrich zu verkleinern, oder auf die grünen Pfeile für benachbarte Karten.


METAR-TAF: